Time;durP1;ratioP1;P1;durP2;ratioP2;P2;SDS_P1;SDS_P2;PMS_P1;PMS_P2;Temp;Humidity;BMP_temperature;BMP_pressure;BME280_temperature;BME280_humidity;BME280_pressure;Samples;Min_cycle;Max_cycle;Signal;HPM_P1;HPM_P2
2021/01/05 00:00:29;;;;;;;1999.90;999.90;;;3.30;99.90;;;;;;5032406;28;20188;-61
2021/01/05 00:02:55;;;;;;;1999.90;999.90;;;3.20;99.90;;;;;;5032483;28;20229;-61
2021/01/05 00:05:22;;;;;;;1999.90;999.90;;;3.20;99.90;;;;;;5032606;28;20653;-60
2021/01/05 00:07:51;;;;;;;1999.90;999.90;;;3.30;99.90;;;;;;5032459;28;20199;-62
2021/01/05 00:10:18;;;;;;;1999.90;999.90;;;3.30;99.90;;;;;;5032287;28;20191;-62
2021/01/05 00:12:44;;;;;;;1999.90;999.90;;;3.30;99.90;;;;;;5032461;28;20172;-62
2021/01/05 00:15:11;;;;;;;1999.90;999.90;;;3.30;99.90;;;;;;5032384;28;20180;-61
2021/01/05 00:17:37;;;;;;;1999.90;999.90;;;3.30;99.90;;;;;;5032573;28;20216;-62
2021/01/05 00:20:27;;;;;;;1999.90;999.90;;;3.40;99.90;;;;;;5032180;28;20172;-62
2021/01/05 00:22:53;;;;;;;1999.90;999.90;;;3.40;99.90;;;;;;5032314;28;20173;-62
2021/01/05 00:25:20;;;;;;;1999.90;999.90;;;3.30;99.90;;;;;;5032523;28;20173;-58
2021/01/05 00:27:46;;;;;;;1999.90;999.90;;;3.30;99.90;;;;;;5031941;28;20591;-62
2021/01/05 00:30:17;;;;;;;1999.90;999.90;;;3.40;99.90;;;;;;5032189;28;20179;-60
2021/01/05 00:32:45;;;;;;;1999.90;999.90;;;3.30;99.90;;;;;;5032345;28;20165;-61
2021/01/05 00:35:13;;;;;;;1999.90;999.90;;;3.20;99.90;;;;;;5032165;28;20185;-61
2021/01/05 00:37:39;;;;;;;1999.90;999.90;;;3.20;99.90;;;;;;5031964;28;20226;-62
2021/01/05 00:40:06;;;;;;;1999.90;999.90;;;3.30;99.90;;;;;;5031934;28;20177;-62
2021/01/05 00:42:32;;;;;;;1999.90;999.90;;;3.20;99.90;;;;;;5031860;28;20160;-62
2021/01/05 00:44:57;;;;;;;1999.90;999.90;;;3.20;99.90;;;;;;5032110;28;20183;-62
2021/01/05 00:47:23;;;;;;;1999.90;999.90;;;3.30;99.90;;;;;;5032043;28;20435;-62
2021/01/05 00:49:48;;;;;;;1999.90;999.90;;;3.20;99.90;;;;;;5031614;28;20187;-62
2021/01/05 00:52:14;;;;;;;1999.90;999.90;;;3.30;99.90;;;;;;5031793;28;20181;-62
2021/01/05 00:54:40;;;;;;;1999.90;999.90;;;3.30;99.90;;;;;;5031694;28;20177;-59
2021/01/05 00:57:08;;;;;;;1999.90;999.90;;;3.30;99.90;;;;;;5031715;28;20207;-62
2021/01/05 00:59:34;;;;;;;1999.90;999.90;;;3.30;99.90;;;;;;5031740;28;20181;-61
2021/01/05 01:02:00;;;;;;;1999.90;999.90;;;3.20;99.90;;;;;;5031542;28;20695;-61
2021/01/05 01:04:27;;;;;;;1999.90;999.90;;;3.10;99.90;;;;;;5031799;28;20399;-62
2021/01/05 01:06:53;;;;;;;1999.90;999.90;;;3.10;99.90;;;;;;5031855;28;20257;-62
2021/01/05 01:09:18;;;;;;;1999.90;999.90;;;3.20;99.90;;;;;;5031288;28;20666;-62
2021/01/05 01:12:06;;;;;;;1999.90;999.90;;;3.30;99.90;;;;;;5031507;28;20421;-60
2021/01/05 01:14:33;;;;;;;1999.90;999.90;;;3.20;99.90;;;;;;5031276;28;20163;-62
2021/01/05 01:16:59;;;;;;;1999.90;999.90;;;3.30;99.90;;;;;;5031114;28;20473;-62
2021/01/05 01:19:25;;;;;;;1999.90;999.90;;;3.30;99.90;;;;;;5031345;28;20307;-61
2021/01/05 01:21:53;;;;;;;1999.90;999.90;;;3.20;99.90;;;;;;5031520;28;20765;-62
2021/01/05 01:24:20;;;;;;;1999.90;999.90;;;3.20;99.90;;;;;;5031254;28;20164;-62
2021/01/05 01:26:46;;;;;;;1999.90;999.90;;;3.30;99.90;;;;;;5031052;28;20200;-61
2021/01/05 01:29:15;;;;;;;1999.90;999.90;;;3.20;99.90;;;;;;5030808;28;20615;-62
2021/01/05 01:31:41;;;;;;;1999.90;999.90;;;3.30;99.90;;;;;;5031040;28;20668;-61
2021/01/05 01:34:06;;;;;;;1999.90;999.90;;;3.30;99.90;;;;;;5031026;28;20176;-62
2021/01/05 01:36:32;;;;;;;1999.90;999.90;;;3.30;99.90;;;;;;5030769;28;20662;-62
2021/01/05 01:38:58;;;;;;;1999.90;999.90;;;3.30;99.90;;;;;;5030898;28;20662;-61
2021/01/05 01:41:23;;;;;;;1999.90;999.90;;;3.30;99.90;;;;;;5030935;28;20180;-62
2021/01/05 01:43:49;;;;;;;1999.90;999.90;;;3.30;99.90;;;;;;5030842;28;20180;-60
2021/01/05 01:46:15;;;;;;;1999.90;999.90;;;3.30;99.90;;;;;;5030854;28;20604;-62
2021/01/05 01:48:41;;;;;;;1999.90;999.90;;;3.30;99.90;;;;;;5030877;28;20230;-62
2021/01/05 01:51:08;;;;;;;1999.90;999.90;;;3.40;99.90;;;;;;5030252;28;20191;-61
2021/01/05 01:54:10;;;;;;;1999.90;999.90;;;3.30;99.90;;;;;;5030686;28;20180;-61
2021/01/05 01:57:07;;;;;;;1999.90;999.90;;;3.30;99.90;;;;;;5030572;28;20263;-62
2021/01/05 01:59:39;;;;;;;1999.90;999.90;;;3.30;99.90;;;;;;5030127;28;20184;-59
2021/01/05 02:02:09;;;;;;;1999.90;999.90;;;3.40;99.90;;;;;;5030625;28;20164;-62
2021/01/05 02:04:52;;;;;;;1999.90;999.90;;;3.40;99.90;;;;;;5030705;28;20191;-62
2021/01/05 02:07:23;;;;;;;1999.90;999.90;;;3.30;99.90;;;;;;5030637;28;20199;-62
2021/01/05 02:10:15;;;;;;;1999.90;999.90;;;3.30;99.90;;;;;;5030721;28;20168;-62
2021/01/05 02:13:14;;;;;;;1999.90;999.90;;;3.40;99.90;;;;;;5030589;28;20172;-62
2021/01/05 02:15:46;;;;;;;1999.90;999.90;;;3.40;99.90;;;;;;5030630;28;20245;-61
2021/01/05 02:18:31;;;;;;;1999.90;999.90;;;3.30;99.90;;;;;;5030321;28;20403;-62
2021/01/05 02:21:26;;;;;;;1999.90;999.90;;;3.30;99.90;;;;;;5030540;28;20534;-61
2021/01/05 02:24:06;;;;;;;1999.90;999.90;;;3.40;99.90;;;;;;5021369;28;20187;-62
2021/01/05 02:26:59;;;;;;;1999.90;999.90;;;3.40;99.90;;;;;;5030364;28;20618;-62
2021/01/05 02:29:35;;;;;;;1999.90;999.90;;;3.40;99.90;;;;;;5030326;28;20638;-61
2021/01/05 02:32:22;;;;;;;1999.90;999.90;;;3.40;99.90;;;;;;5030443;28;20160;-62
2021/01/05 02:35:03;;;;;;;1999.90;999.90;;;3.30;99.90;;;;;;5030340;28;20241;-62
2021/01/05 02:37:51;;;;;;;1999.90;999.90;;;3.40;99.90;;;;;;5030284;28;20204;-61
2021/01/05 02:40:34;;;;;;;1999.90;999.90;;;3.30;99.90;;;;;;5024474;28;20185;-61
2021/01/05 02:43:31;;;;;;;1999.90;999.90;;;3.40;99.90;;;;;;5030381;28;20184;-62
2021/01/05 02:46:25;;;;;;;1999.90;999.90;;;3.40;99.90;;;;;;5030406;28;20184;-62
2021/01/05 02:49:15;;;;;;;1999.90;999.90;;;3.30;99.90;;;;;;5030305;28;20278;-60
2021/01/05 02:51:55;;;;;;;1999.90;999.90;;;3.20;99.90;;;;;;5030248;28;20149;-61
2021/01/05 02:54:43;;;;;;;1999.90;999.90;;;3.20;99.90;;;;;;5030612;28;20207;-62
2021/01/05 02:57:14;;;;;;;1999.90;999.90;;;3.30;99.90;;;;;;5030071;28;20191;-61
2021/01/05 02:59:59;;;;;;;1999.90;999.90;;;3.30;99.90;;;;;;5030040;28;20703;-60
2021/01/05 03:02:49;;;;;;;1999.90;999.90;;;3.30;99.90;;;;;;5031718;28;20206;-62
2021/01/05 03:05:14;;;;;;;1999.90;999.90;;;3.30;99.90;;;;;;5034095;28;20243;-61
2021/01/05 03:07:40;;;;;;;1999.90;999.90;;;3.30;99.90;;;;;;5033670;28;20741;-62
2021/01/05 03:10:31;;;;;;;1999.90;999.90;;;3.20;99.90;;;;;;5033484;28;20172;-61
2021/01/05 03:13:05;;;;;;;1999.90;999.90;;;3.30;99.90;;;;;;5033872;28;20164;-62
2021/01/05 03:16:01;;;;;;;1999.90;999.90;;;3.30;99.90;;;;;;5033463;28;20191;-61
2021/01/05 03:18:55;;;;;;;1999.90;999.90;;;3.30;99.90;;;;;;5033209;28;20286;-61
2021/01/05 03:21:38;;;;;;;1999.90;999.90;;;3.20;99.90;;;;;;5033439;28;20211;-62
2021/01/05 03:24:06;;;;;;;1999.90;999.90;;;3.30;99.90;;;;;;5033489;28;20564;-62
2021/01/05 03:26:42;;;;;;;1999.90;999.90;;;3.30;99.90;;;;;;5033572;28;20172;-62
2021/01/05 03:29:08;;;;;;;1999.90;999.90;;;3.30;99.90;;;;;;5032978;28;20227;-61
2021/01/05 03:31:34;;;;;;;1999.90;999.90;;;3.30;99.90;;;;;;5033533;28;20172;-61
2021/01/05 03:34:02;;;;;;;1999.90;999.90;;;3.30;99.90;;;;;;5033299;28;20699;-62
2021/01/05 03:36:28;;;;;;;1999.90;999.90;;;3.30;99.90;;;;;;5033146;28;20165;-61
2021/01/05 03:38:54;;;;;;;1999.90;999.90;;;3.30;99.90;;;;;;5033058;28;20275;-60
2021/01/05 03:41:20;;;;;;;1999.90;999.90;;;3.30;99.90;;;;;;5033119;28;20603;-59
2021/01/05 03:43:46;;;;;;;1999.90;999.90;;;3.30;99.90;;;;;;5033296;28;20465;-61
2021/01/05 03:46:13;;;;;;;1999.90;999.90;;;3.20;99.90;;;;;;5033149;28;20403;-61
2021/01/05 03:48:39;;;;;;;1999.90;999.90;;;3.20;99.90;;;;;;5032830;28;20188;-62
2021/01/05 03:51:05;;;;;;;1999.90;999.90;;;3.20;99.90;;;;;;5032959;28;20259;-62
2021/01/05 03:53:30;;;;;;;1999.90;999.90;;;3.20;99.90;;;;;;5032926;28;20259;-62
2021/01/05 03:55:56;;;;;;;1999.90;999.90;;;3.20;99.90;;;;;;5032822;28;20256;-62
2021/01/05 03:58:21;;;;;;;1999.90;999.90;;;3.30;99.90;;;;;;5032601;28;20207;-61
2021/01/05 04:00:47;;;;;;;1999.90;999.90;;;3.30;99.90;;;;;;5032803;28;20630;-60
2021/01/05 04:03:13;;;;;;;1999.90;999.90;;;3.30;99.90;;;;;;5032569;28;20169;-62
2021/01/05 04:05:39;;;;;;;1999.90;999.90;;;3.30;99.90;;;;;;5032652;28;20172;-60
2021/01/05 04:08:04;;;;;;;1999.90;999.90;;;3.20;99.90;;;;;;5032617;28;20191;-62
2021/01/05 04:10:30;;;;;;;1999.90;999.90;;;3.20;99.90;;;;;;5032921;28;20572;-61
2021/01/05 04:12:56;;;;;;;1999.90;999.90;;;3.20;99.90;;;;;;5032118;28;21020;-62
2021/01/05 04:15:29;;;;;;;1999.90;999.90;;;3.20;99.90;;;;;;5032535;28;20169;-62
2021/01/05 04:17:57;;;;;;;1999.90;999.90;;;3.20;99.90;;;;;;5032237;28;20680;-62
2021/01/05 04:20:24;;;;;;;1999.90;999.90;;;3.30;99.90;;;;;;5032283;28;20165;-62
2021/01/05 04:22:49;;;;;;;1999.90;999.90;;;3.20;99.90;;;;;;5032670;28;20510;-61
2021/01/05 04:25:17;;;;;;;1999.90;999.90;;;3.30;99.90;;;;;;5032371;28;20183;-62
2021/01/05 04:27:43;;;;;;;1999.90;999.90;;;3.40;99.90;;;;;;5032568;28;20728;-61
2021/01/05 04:30:28;;;;;;;1999.90;999.90;;;3.40;99.90;;;;;;5032692;28;20180;-61
2021/01/05 04:32:57;;;;;;;1999.90;999.90;;;3.40;99.90;;;;;;5032705;28;20230;-60
2021/01/05 04:35:24;;;;;;;1999.90;999.90;;;3.30;99.90;;;;;;5032602;28;20230;-61
2021/01/05 04:37:50;;;;;;;1999.90;999.90;;;3.30;99.90;;;;;;5032374;28;20204;-61
2021/01/05 04:40:44;;;;;;;1999.90;999.90;;;3.30;99.90;;;;;;5032282;28;20531;-62
2021/01/05 04:43:19;;;;;;;1999.90;999.90;;;3.40;99.90;;;;;;5032309;28;20502;-61
2021/01/05 04:46:07;;;;;;;1999.90;999.90;;;3.30;99.90;;;;;;5032373;28;20229;-61
2021/01/05 04:48:50;;;;;;;1999.90;999.90;;;3.30;99.90;;;;;;5032068;28;20283;-61
2021/01/05 04:51:30;;;;;;;1999.90;999.90;;;3.20;99.90;;;;;;5032130;28;20236;-61
2021/01/05 04:54:04;;;;;;;1999.90;999.90;;;3.20;99.90;;;;;;5031891;28;20474;-61
2021/01/05 04:57:01;;;;;;;1999.90;999.90;;;3.20;99.90;;;;;;5031977;28;20171;-61
2021/01/05 04:59:34;;;;;;;1999.90;999.90;;;3.20;99.90;;;;;;5032042;28;20152;-61
2021/01/05 05:02:00;;;;;;;1999.90;999.90;;;3.20;99.90;;;;;;5031925;28;20521;-61
2021/01/05 05:04:50;;;;;;;1999.90;999.90;;;3.20;99.90;;;;;;5031975;28;20175;-61
2021/01/05 05:07:25;;;;;;;1999.90;999.90;;;3.10;99.90;;;;;;5031970;28;20262;-61
2021/01/05 05:10:29;;;;;;;1999.90;999.90;;;3.10;99.90;;;;;;5031920;28;20251;-61
2021/01/05 05:12:54;;;;;;;1999.90;999.90;;;3.00;99.90;;;;;;5008979;28;20661;-59
2021/01/05 05:15:36;;;;;;;1999.90;999.90;;;3.00;99.90;;;;;;5032081;28;20180;-61
2021/01/05 05:18:14;;;;;;;1999.90;999.90;;;3.00;99.90;;;;;;5031606;28;20204;-61
2021/01/05 05:21:16;;;;;;;1999.90;999.90;;;3.10;99.90;;;;;;5031695;28;20246;-61
2021/01/05 05:24:14;;;;;;;1999.90;999.90;;;3.10;99.90;;;;;;5031226;28;20206;-61
2021/01/05 05:26:45;;;;;;;1999.90;999.90;;;3.10;99.90;;;;;;5022886;28;20183;-62
2021/01/05 05:29:29;;;;;;;1999.90;999.90;;;3.10;99.90;;;;;;5031387;28;20219;-61
2021/01/05 05:31:59;;;;;;;1999.90;999.90;;;3.20;99.90;;;;;;5031357;28;20165;-61
2021/01/05 05:34:49;;;;;;;1999.90;999.90;;;3.10;99.90;;;;;;5031525;28;20164;-61
2021/01/05 05:37:23;;;;;;;1999.90;999.90;;;3.10;99.90;;;;;;5031413;28;20558;-61
2021/01/05 05:40:08;;;;;;;1999.90;999.90;;;3.20;99.90;;;;;;5031251;28;20180;-61
2021/01/05 05:43:05;;;;;;;1999.90;999.90;;;3.20;99.90;;;;;;5031594;28;20160;-61
2021/01/05 05:45:40;;;;;;;1999.90;999.90;;;3.30;99.90;;;;;;5031445;28;20724;-61
2021/01/05 05:48:45;;;;;;;1999.90;999.90;;;3.30;99.90;;;;;;5031494;28;20204;-60
2021/01/05 05:51:33;;;;;;;1999.90;999.90;;;3.20;99.90;;;;;;5029154;28;20326;-61
2021/01/05 05:54:07;;;;;;;1999.90;999.90;;;3.20;99.90;;;;;;5025365;28;20642;-61
2021/01/05 05:56:51;;;;;;;1999.90;999.90;;;3.30;99.90;;;;;;5031162;28;20173;-61
2021/01/05 05:59:17;;;;;;;1999.90;999.90;;;3.30;99.90;;;;;;5030949;28;20208;-61
2021/01/05 06:01:43;;;;;;;1999.90;999.90;;;3.30;99.90;;;;;;5031061;28;20184;-61
2021/01/05 06:04:11;;;;;;;1999.90;999.90;;;3.30;99.90;;;;;;5031021;28;20168;-61
2021/01/05 06:06:39;;;;;;;1999.90;999.90;;;3.30;99.90;;;;;;5030877;28;20172;-61
2021/01/05 06:09:05;;;;;;;1999.90;999.90;;;3.40;99.90;;;;;;5030694;28;20200;-61
2021/01/05 06:11:34;;;;;;;1999.90;999.90;;;3.30;99.90;;;;;;5030834;28;20160;-61
2021/01/05 06:14:03;;;;;;;1999.90;999.90;;;3.40;99.90;;;;;;5030918;28;20431;-61
2021/01/05 06:16:33;;;;;;;1999.90;999.90;;;3.40;99.90;;;;;;5031184;28;20177;-61
2021/01/05 06:18:58;;;;;;;1999.90;999.90;;;3.40;99.90;;;;;;5030838;28;20192;-61
2021/01/05 06:21:24;;;;;;;1999.90;999.90;;;3.40;99.90;;;;;;5030938;28;20177;-62
2021/01/05 06:23:50;;;;;;;1999.90;999.90;;;3.40;99.90;;;;;;5030899;28;20219;-61
2021/01/05 06:26:17;;;;;;;1999.90;999.90;;;3.30;99.90;;;;;;5030816;28;20180;-61
2021/01/05 06:28:42;;;;;;;1999.90;999.90;;;3.40;99.90;;;;;;5030537;28;20451;-62
2021/01/05 06:31:08;;;;;;;1999.90;999.90;;;3.30;99.90;;;;;;5030821;28;20184;-60
2021/01/05 06:33:34;;;;;;;1999.90;999.90;;;3.30;99.90;;;;;;5031055;28;20259;-61
2021/01/05 06:35:59;;;;;;;1999.90;999.90;;;3.20;99.90;;;;;;5031948;28;20256;-61
2021/01/05 06:38:25;;;;;;;1999.90;999.90;;;3.20;99.90;;;;;;5034380;28;20767;-61
2021/01/05 06:40:51;;;;;;;1999.90;999.90;;;3.30;99.90;;;;;;5034788;28;20218;-61
2021/01/05 06:43:17;;;;;;;1999.90;999.90;;;3.30;99.90;;;;;;5034770;28;20200;-61
2021/01/05 06:45:42;;;;;;;1999.90;999.90;;;3.30;99.90;;;;;;5034653;28;20177;-61
2021/01/05 06:48:08;;;;;;;1999.90;999.90;;;3.40;99.90;;;;;;5034563;28;20196;-59
2021/01/05 06:50:34;;;;;;;1999.90;999.90;;;3.40;99.90;;;;;;5034668;28;20180;-61
2021/01/05 06:53:00;;;;;;;1999.90;999.90;;;3.40;99.90;;;;;;5034325;28;20179;-61
2021/01/05 06:55:26;;;;;;;1999.90;999.90;;;3.40;99.90;;;;;;5034345;28;20172;-61
2021/01/05 06:57:51;;;;;;;1999.90;999.90;;;3.40;99.90;;;;;;5034144;28;20211;-61
2021/01/05 07:00:21;;;;;;;1999.90;999.90;;;3.40;99.90;;;;;;5034203;28;20402;-61
2021/01/05 07:02:47;;;;;;;1999.90;999.90;;;3.50;99.90;;;;;;5034038;28;20215;-61
2021/01/05 07:05:13;;;;;;;1999.90;999.90;;;3.50;99.90;;;;;;5034007;28;20192;-61
2021/01/05 07:07:39;;;;;;;1999.90;999.90;;;3.40;99.90;;;;;;5033746;28;20194;-60
2021/01/05 07:10:06;;;;;;;1999.90;999.90;;;3.30;99.90;;;;;;5033801;28;20270;-60
2021/01/05 07:12:31;;;;;;;1999.90;999.90;;;3.30;99.90;;;;;;5034336;28;20969;-61
2021/01/05 07:14:58;;;;;;;1999.90;999.90;;;3.40;99.90;;;;;;5034068;28;20176;-61
2021/01/05 07:17:24;;;;;;;1999.90;999.90;;;3.40;99.90;;;;;;5033795;28;20219;-59
2021/01/05 07:19:49;;;;;;;1999.90;999.90;;;3.40;99.90;;;;;;5033692;28;20169;-61
2021/01/05 07:22:15;;;;;;;1999.90;999.90;;;3.40;99.90;;;;;;5034171;28;20168;-59
2021/01/05 07:24:41;;;;;;;1999.90;999.90;;;3.40;99.90;;;;;;5033740;28;20255;-61
2021/01/05 07:27:06;;;;;;;1999.90;999.90;;;3.40;99.90;;;;;;5033721;28;20194;-61
2021/01/05 07:29:32;;;;;;;1999.90;999.90;;;3.30;99.90;;;;;;5033945;28;20188;-61
2021/01/05 07:31:58;;;;;;;1999.90;999.90;;;3.30;99.90;;;;;;5033768;28;20669;-61
2021/01/05 07:34:23;;;;;;;1999.90;999.90;;;3.30;99.90;;;;;;5033531;28;20187;-59
2021/01/05 07:36:54;;;;;;;1999.90;999.90;;;3.20;99.90;;;;;;5033487;28;20255;-61
2021/01/05 07:39:27;;;;;;;1999.90;999.90;;;3.20;99.90;;;;;;5033436;28;20180;-61
2021/01/05 07:42:14;;;;;;;1999.90;999.90;;;3.30;99.90;;;;;;5033465;28;20248;-60
2021/01/05 07:44:40;;;;;;;1999.90;999.90;;;3.20;99.90;;;;;;5033584;28;20610;-61
2021/01/05 07:47:07;;;;;;;1999.90;999.90;;;3.20;99.90;;;;;;5032836;28;20199;-61
2021/01/05 07:49:32;;;;;;;1999.90;999.90;;;3.20;99.90;;;;;;5032453;28;20172;-61
2021/01/05 07:51:58;;;;;;;1999.90;999.90;;;3.20;99.90;;;;;;5033406;28;20718;-61
2021/01/05 07:54:23;;;;;;;1999.90;999.90;;;3.30;99.90;;;;;;5033192;28;20218;-61
2021/01/05 07:56:49;;;;;;;1999.90;999.90;;;3.30;99.90;;;;;;5033273;28;20641;-61
2021/01/05 07:59:18;;;;;;;1999.90;999.90;;;3.30;99.90;;;;;;5032923;28;20191;-61
2021/01/05 08:01:44;;;;;;;1999.90;999.90;;;3.30;99.90;;;;;;5033227;28;20253;-61
2021/01/05 08:04:10;;;;;;;1999.90;999.90;;;3.30;99.90;;;;;;5033184;28;20265;-61
2021/01/05 08:06:40;;;;;;;1999.90;999.90;;;3.30;99.90;;;;;;5032922;28;20200;-61
2021/01/05 08:09:06;;;;;;;1999.90;999.90;;;3.20;99.90;;;;;;5032689;28;20192;-61
2021/01/05 08:11:39;;;;;;;1999.90;999.90;;;3.30;99.90;;;;;;5032804;28;20180;-60
2021/01/05 08:14:05;;;;;;;1999.90;999.90;;;3.30;99.90;;;;;;5032871;28;20299;-60
2021/01/05 08:16:32;;;;;;;1999.90;999.90;;;3.30;99.90;;;;;;5032935;28;20161;-61
2021/01/05 08:18:57;;;;;;;1999.90;999.90;;;3.40;99.90;;;;;;5032925;28;20220;-61
2021/01/05 08:21:26;;;;;;;1999.90;999.90;;;3.50;99.90;;;;;;5033056;28;20842;-62
2021/01/05 08:23:52;;;;;;;1999.90;999.90;;;3.60;99.90;;;;;;5033009;28;20168;-61
2021/01/05 08:26:19;;;;;;;1999.90;999.90;;;3.70;99.90;;;;;;5032726;28;20181;-61
2021/01/05 08:28:47;;;;;;;1999.90;999.90;;;3.70;99.90;;;;;;5032494;28;20208;-58
2021/01/05 08:31:14;;;;;;;1999.90;999.90;;;3.70;99.90;;;;;;5032749;28;20522;-61
2021/01/05 08:33:40;;;;;;;1999.90;999.90;;;3.70;99.90;;;;;;5033218;28;20176;-60
2021/01/05 08:36:07;;;;;;;1999.90;999.90;;;3.70;99.90;;;;;;5033070;28;20210;-61
2021/01/05 08:38:33;;;;;;;1999.90;999.90;;;3.70;99.90;;;;;;5032533;28;20459;-61
2021/01/05 08:40:58;;;;;;;1999.90;999.90;;;3.70;99.90;;;;;;5032725;28;20588;-60
2021/01/05 08:43:24;;;;;;;1999.90;999.90;;;3.70;99.90;;;;;;5032519;28;20171;-61
2021/01/05 08:45:50;;;;;;;1999.90;999.90;;;3.70;99.90;;;;;;5032474;28;20168;-60
2021/01/05 08:48:15;;;;;;;1999.90;999.90;;;3.70;99.90;;;;;;5032443;28;20249;-61
2021/01/05 08:50:41;;;;;;;1999.90;999.90;;;3.70;99.90;;;;;;5032528;28;20175;-61
2021/01/05 08:53:09;;;;;;;1999.90;999.90;;;3.80;99.90;;;;;;5032578;28;20169;-61
2021/01/05 08:55:36;;;;;;;1999.90;999.90;;;3.80;99.90;;;;;;5032603;28;20372;-62
2021/01/05 08:58:02;;;;;;;1999.90;999.90;;;3.80;99.90;;;;;;5032040;28;20211;-61
2021/01/05 09:00:27;;;;;;;1999.90;999.90;;;3.80;99.90;;;;;;5032231;28;20176;-61
2021/01/05 09:02:53;;;;;;;1999.90;999.90;;;3.80;99.90;;;;;;5032710;28;20172;-61
2021/01/05 09:05:19;;;;;;;1999.90;999.90;;;3.80;99.90;;;;;;5032443;28;20173;-61
2021/01/05 09:07:44;;;;;;;1999.90;999.90;;;3.80;99.90;;;;;;5032535;28;20681;-61
2021/01/05 09:10:20;;;;;;;1999.90;999.90;;;3.90;99.90;;;;;;5032083;28;20680;-61
2021/01/05 09:12:46;;;;;;;1999.90;999.90;;;3.90;99.90;;;;;;5032047;28;20203;-61
2021/01/05 09:15:18;;;;;;;1999.90;999.90;;;3.90;99.90;;;;;;5032172;28;20183;-61
2021/01/05 09:17:48;;;;;;;1999.90;999.90;;;3.90;99.90;;;;;;5032211;28;20204;-62
2021/01/05 09:20:25;;;;;;;1999.90;999.90;;;4.00;99.90;;;;;;5032112;28;20247;-60
2021/01/05 09:22:53;;;;;;;1999.90;999.90;;;3.90;99.90;;;;;;5032054;28;20195;-60
2021/01/05 09:25:19;;;;;;;1999.90;999.90;;;3.90;99.90;;;;;;5032083;28;20410;-62
2021/01/05 09:27:45;;;;;;;1999.90;999.90;;;3.90;99.90;;;;;;5031647;28;20439;-61
2021/01/05 09:30:16;;;;;;;1999.90;999.90;;;3.90;99.90;;;;;;5031962;28;20173;-61
2021/01/05 09:32:42;;;;;;;1999.90;999.90;;;3.90;99.90;;;;;;5031694;28;20172;-62
2021/01/05 09:35:09;;;;;;;1999.90;999.90;;;3.90;99.90;;;;;;5031849;28;20264;-59
2021/01/05 09:37:34;;;;;;;1999.90;999.90;;;3.90;99.90;;;;;;5031305;28;20287;-61
2021/01/05 09:40:00;;;;;;;1999.90;999.90;;;4.00;99.90;;;;;;5031298;28;20706;-59
2021/01/05 09:42:29;;;;;;;1999.90;999.90;;;4.00;99.90;;;;;;5031848;28;20165;-61
2021/01/05 09:44:54;;;;;;;1999.90;999.90;;;4.00;99.90;;;;;;5027642;28;20691;-61
2021/01/05 09:47:20;;;;;;;1999.90;999.90;;;4.00;99.90;;;;;;5030667;28;20290;-60
2021/01/05 09:49:50;;;;;;;1999.90;999.90;;;4.00;99.90;;;;;;5030833;28;20157;-61
2021/01/05 09:52:16;;;;;;;1999.90;999.90;;;4.00;99.90;;;;;;5030690;28;20591;-61
2021/01/05 09:54:47;;;;;;;1999.90;999.90;;;4.00;99.90;;;;;;5030470;28;20191;-61
2021/01/05 09:57:13;;;;;;;1999.90;999.90;;;4.10;99.90;;;;;;5030320;28;20204;-60
2021/01/05 09:59:38;;;;;;;1999.90;999.90;;;4.10;99.90;;;;;;5030247;28;20175;-61
2021/01/05 10:02:05;;;;;;;1999.90;999.90;;;4.20;99.90;;;;;;5030998;28;20267;-60
2021/01/05 10:04:31;;;;;;;1999.90;999.90;;;4.20;99.90;;;;;;5030842;28;20919;-62
2021/01/05 10:06:57;;;;;;;1999.90;999.90;;;4.20;99.90;;;;;;5030198;28;20403;-61
2021/01/05 10:09:23;;;;;;;1999.90;999.90;;;4.30;99.90;;;;;;5030646;28;20497;-61
2021/01/05 10:11:48;;;;;;;1999.90;999.90;;;4.40;99.90;;;;;;5030092;28;20422;-60
2021/01/05 10:14:17;;;;;;;1999.90;999.90;;;4.40;99.90;;;;;;5030071;28;20176;-61
2021/01/05 10:16:43;;;;;;;1999.90;999.90;;;4.40;99.90;;;;;;5050437;28;20301;-61
2021/01/05 10:19:13;;;;;;;1999.90;999.90;;;4.40;99.90;;;;;;5050590;28;20195;-59
2021/01/05 10:21:41;;;;;;;1999.90;999.90;;;4.50;99.90;;;;;;5049699;28;21037;-61
2021/01/05 10:24:09;;;;;;;1999.90;999.90;;;4.50;99.90;;;;;;5050236;28;20942;-60
2021/01/05 10:26:35;;;;;;;1999.90;999.90;;;4.50;99.90;;;;;;5050114;28;20194;-60
2021/01/05 10:29:02;;;;;;;1999.90;999.90;;;4.50;99.90;;;;;;5049290;28;20203;-60
2021/01/05 10:31:40;;;;;;;1999.90;999.90;;;4.40;99.90;;;;;;5050213;28;20412;-59
2021/01/05 10:34:06;;;;;;;1999.90;999.90;;;4.40;99.90;;;;;;5050250;28;20164;-61
2021/01/05 10:36:32;;;;;;;1999.90;999.90;;;4.50;99.90;;;;;;5049855;28;20179;-61
2021/01/05 10:38:58;;;;;;;1999.90;999.90;;;4.50;99.90;;;;;;5050149;28;20246;-61
2021/01/05 10:41:38;;;;;;;1999.90;999.90;;;4.50;99.90;;;;;;5050123;28;20922;-58
2021/01/05 10:44:05;;;;;;;1999.90;999.90;;;4.60;99.90;;;;;;5050018;28;20168;-60
2021/01/05 10:46:31;;;;;;;1999.90;999.90;;;4.50;99.90;;;;;;5049984;28;20255;-61
2021/01/05 10:48:57;;;;;;;1999.90;999.90;;;4.50;99.90;;;;;;5050282;28;20513;-60
2021/01/05 10:51:23;;;;;;;1999.90;999.90;;;4.70;99.90;;;;;;5050186;28;20544;-61
2021/01/05 10:53:49;;;;;;;1999.90;999.90;;;4.80;99.90;;;;;;5050255;28;20164;-61
2021/01/05 10:56:16;;;;;;;1999.90;999.90;;;4.90;99.90;;;;;;5050248;28;20767;-60
2021/01/05 10:58:42;;;;;;;1999.90;999.90;;;5.00;99.90;;;;;;5049628;28;20261;-58
2021/01/05 11:01:08;;;;;;;1999.90;999.90;;;5.00;99.90;;;;;;5050033;28;20406;-60
2021/01/05 11:03:35;;;;;;;1999.90;999.90;;;5.10;99.90;;;;;;5050321;28;20168;-61
2021/01/05 11:06:03;;;;;;;1999.90;999.90;;;5.10;99.90;;;;;;5049739;28;20505;-61
2021/01/05 11:08:28;;;;;;;1999.90;999.90;;;5.10;99.90;;;;;;5049771;28;20428;-61
2021/01/05 11:10:54;;;;;;;1999.90;999.90;;;5.10;99.90;;;;;;5050104;28;20502;-60
2021/01/05 11:13:19;;;;;;;1999.90;999.90;;;5.10;99.90;;;;;;5050016;28;20267;-61
2021/01/05 11:15:45;;;;;;;1999.90;999.90;;;5.10;99.90;;;;;;5049867;28;20669;-60
2021/01/05 11:18:10;;;;;;;1999.90;999.90;;;5.10;99.90;;;;;;5050088;28;20200;-61
2021/01/05 11:20:36;;;;;;;1999.90;999.90;;;5.10;99.90;;;;;;5050082;28;20168;-61
2021/01/05 11:23:02;;;;;;;1999.90;999.90;;;5.00;99.90;;;;;;5051536;28;20164;-61
2021/01/05 11:25:27;;;;;;;1999.90;999.90;;;5.00;99.90;;;;;;5054268;28;20211;-60
2021/01/05 11:27:53;;;;;;;1999.90;999.90;;;5.10;99.90;;;;;;5053645;28;20261;-61
2021/01/05 11:30:24;;;;;;;1999.90;999.90;;;5.10;99.90;;;;;;5055076;28;20253;-60
2021/01/05 11:32:49;;;;;;;1999.90;999.90;;;5.00;99.90;;;;;;5055126;28;20179;-60
2021/01/05 11:35:16;;;;;;;1999.90;999.90;;;4.90;99.90;;;;;;5054949;28;20402;-59
2021/01/05 11:37:42;;;;;;;1999.90;999.90;;;4.90;99.90;;;;;;5055892;28;20237;-60
2021/01/05 11:40:08;;;;;;;1999.90;999.90;;;4.90;99.90;;;;;;5056760;28;20387;-61
2021/01/05 11:42:34;;;;;;;1999.90;999.90;;;4.80;99.90;;;;;;5057737;28;20203;-60
2021/01/05 11:45:01;;;;;;;1999.90;999.90;;;4.70;99.90;;;;;;5055525;28;20231;-61
2021/01/05 11:47:28;;;;;;;1999.90;999.90;;;4.70;99.90;;;;;;5054226;28;20194;-60
2021/01/05 11:49:54;;;;;;;1999.90;999.90;;;4.60;99.90;;;;;;5054156;28;20406;-59
2021/01/05 11:52:19;;;;;;;1999.90;999.90;;;4.60;99.90;;;;;;5055456;28;20191;-60
2021/01/05 11:54:45;;;;;;;1999.90;999.90;;;4.70;99.90;;;;;;5054544;28;20402;-57
2021/01/05 11:57:11;;;;;;;1999.90;999.90;;;4.70;99.90;;;;;;5054190;28;20192;-58
2021/01/05 11:59:37;;;;;;;1999.90;999.90;;;4.80;99.90;;;;;;5054494;28;20171;-61
2021/01/05 12:02:03;;;;;;;1999.90;999.90;;;4.80;99.90;;;;;;5040407;28;20770;-61
2021/01/05 12:04:29;;;;;;;1999.90;999.90;;;4.90;99.90;;;;;;5030223;28;20423;-59
2021/01/05 12:06:55;;;;;;;1999.90;999.90;;;4.90;99.90;;;;;;5030164;28;20404;-61
2021/01/05 12:09:23;;;;;;;1999.90;999.90;;;4.90;99.90;;;;;;5030204;28;20427;-60
2021/01/05 12:11:53;;;;;;;1999.90;999.90;;;4.90;99.90;;;;;;5030108;28;20826;-57
2021/01/05 12:14:19;;;;;;;1999.90;999.90;;;4.80;99.90;;;;;;5031049;28;20685;-61
2021/01/05 12:16:50;;;;;;;1999.90;999.90;;;4.80;99.90;;;;;;5032595;28;20417;-60
2021/01/05 12:19:27;;;;;;;1999.90;999.90;;;4.80;99.90;;;;;;5032207;28;20204;-58
2021/01/05 12:21:59;;;;;;;1999.90;999.90;;;4.80;99.90;;;;;;5034560;28;20419;-58
2021/01/05 12:24:28;;;;;;;1999.90;999.90;;;4.80;99.90;;;;;;5034115;28;20430;-58